Time;durP1;ratioP1;P1;durP2;ratioP2;P2;SDS_P1;SDS_P2;PMS_P1;PMS_P2;Temp;Humidity;BMP_temperature;BMP_pressure;BME280_temperature;BME280_humidity;BME280_pressure;Samples;Min_cycle;Max_cycle;Signal;HPM_P1;HPM_P2
2021/06/28 00:00:29;;;;;;;0.68;0.40;;;18.60;99.90;;;;;;5027667;28;20195;-70
2021/06/28 00:02:55;;;;;;;0.50;0.28;;;18.50;99.90;;;;;;5025241;28;20074;-70
2021/06/28 00:05:20;;;;;;;0.50;0.30;;;18.50;99.90;;;;;;5025984;28;20082;-73
2021/06/28 00:07:47;;;;;;;1.40;0.57;;;18.20;99.90;;;;;;5028136;28;20094;-70
2021/06/28 00:10:16;;;;;;;0.85;0.40;;;18.20;99.90;;;;;;5026598;28;20090;-72
2021/06/28 00:12:42;;;;;;;0.55;0.30;;;18.20;99.90;;;;;;5028352;28;20992;-69
2021/06/28 00:15:12;;;;;;;1.60;0.40;;;18.30;99.90;;;;;;5030356;28;20153;-72
2021/06/28 00:17:38;;;;;;;1.48;0.50;;;18.30;99.90;;;;;;5029351;28;20121;-69
2021/06/28 00:20:06;;;;;;;0.40;0.20;;;18.20;99.90;;;;;;5028105;28;20071;-70
2021/06/28 00:22:32;;;;;;;1.48;0.38;;;18.10;99.90;;;;;;5027350;28;20086;-71
2021/06/28 00:24:57;;;;;;;2.72;0.25;;;18.10;99.90;;;;;;5028697;28;20085;-70
2021/06/28 00:27:23;;;;;;;1.52;0.60;;;18.10;99.90;;;;;;5029366;28;20102;-69
2021/06/28 00:29:52;;;;;;;1.52;0.40;;;18.00;99.90;;;;;;5022747;28;20635;-69
2021/06/28 00:32:19;;;;;;;0.95;0.40;;;18.00;99.90;;;;;;5027924;28;20133;-69
2021/06/28 00:34:45;;;;;;;0.70;0.40;;;18.00;99.90;;;;;;5025800;28;20538;-69
2021/06/28 00:37:11;;;;;;;1.85;0.50;;;18.10;99.90;;;;;;5028224;28;20579;-70
2021/06/28 00:39:37;;;;;;;1.10;0.20;;;18.00;99.90;;;;;;5028575;28;20074;-69
2021/06/28 00:42:03;;;;;;;0.85;0.43;;;17.90;99.90;;;;;;5029416;28;20081;-69
2021/06/28 00:44:28;;;;;;;2.50;0.50;;;18.00;99.90;;;;;;5030583;28;20145;-69
2021/06/28 00:46:54;;;;;;;0.90;0.52;;;18.00;99.90;;;;;;5028750;28;20093;-71
2021/06/28 00:49:19;;;;;;;1.42;0.30;;;17.90;99.90;;;;;;5028970;28;20090;-69
2021/06/28 00:51:45;;;;;;;0.98;0.30;;;17.80;99.90;;;;;;5027788;28;20215;-69
2021/06/28 00:54:11;;;;;;;1.30;0.40;;;17.80;99.90;;;;;;5028859;28;20161;-70
2021/06/28 00:56:37;;;;;;;0.52;0.43;;;17.70;99.90;;;;;;5027031;28;20671;-70
2021/06/28 00:59:04;;;;;;;4.10;0.50;;;17.70;99.90;;;;;;5027724;28;20554;-70
2021/06/28 01:01:29;;;;;;;1.88;0.40;;;17.80;99.90;;;;;;5026929;28;20089;-72
2021/06/28 01:03:55;;;;;;;0.85;0.52;;;17.70;99.90;;;;;;5028628;28;20070;-69
2021/06/28 01:06:21;;;;;;;4.22;0.50;;;17.60;99.90;;;;;;5028240;28;20646;-69
2021/06/28 01:08:46;;;;;;;0.80;0.45;;;17.60;99.90;;;;;;5029043;28;20148;-71
2021/06/28 01:11:12;;;;;;;0.90;0.30;;;17.70;99.90;;;;;;5027472;28;20124;-70
2021/06/28 01:13:40;;;;;;;2.22;0.50;;;17.50;99.90;;;;;;5027543;28;20090;-69
2021/06/28 01:16:06;;;;;;;6.45;0.63;;;17.30;99.90;;;;;;5025001;28;20458;-73
2021/06/28 01:18:32;;;;;;;2.95;0.47;;;17.30;99.90;;;;;;5025360;28;20110;-70
2021/06/28 01:21:00;;;;;;;2.13;0.57;;;17.50;99.90;;;;;;5026057;28;20078;-70
2021/06/28 01:23:28;;;;;;;0.88;0.40;;;17.60;99.90;;;;;;5009937;28;20106;-71
2021/06/28 01:25:56;;;;;;;0.80;0.30;;;17.50;99.90;;;;;;5015986;28;20172;-73
2021/06/28 01:28:23;;;;;;;0.68;0.40;;;17.50;99.90;;;;;;5010199;28;20093;-70
2021/06/28 01:30:50;;;;;;;1.30;0.30;;;17.50;99.90;;;;;;5026245;28;20078;-71
2021/06/28 01:33:16;;;;;;;0.65;0.47;;;17.50;99.90;;;;;;5025352;28;20135;-70
2021/06/28 01:35:41;;;;;;;3.72;0.45;;;17.50;99.90;;;;;;5026730;28;20629;-70
2021/06/28 01:38:08;;;;;;;1.13;0.30;;;17.50;99.90;;;;;;5026710;28;20104;-71
2021/06/28 01:40:35;;;;;;;0.40;0.30;;;17.50;99.90;;;;;;5023051;28;20124;-70
2021/06/28 01:43:01;;;;;;;1.25;0.50;;;17.50;99.90;;;;;;5020607;28;20148;-70
2021/06/28 01:45:26;;;;;;;0.57;0.38;;;17.50;99.90;;;;;;5025829;28;20078;-71
2021/06/28 01:47:54;;;;;;;1.35;0.50;;;17.40;99.90;;;;;;5008404;28;20124;-72
2021/06/28 01:50:22;;;;;;;8.60;0.68;;;17.30;99.90;;;;;;5023871;28;20579;-70
2021/06/28 01:52:48;;;;;;;0.77;0.43;;;17.50;99.90;;;;;;5025970;28;20080;-70
2021/06/28 01:55:16;;;;;;;0.80;0.60;;;17.40;99.90;;;;;;5026892;28;20086;-70
2021/06/28 01:57:55;;;;;;;2.42;0.50;;;17.40;99.90;;;;;;5024583;28;20183;-69
2021/06/28 02:00:24;;;;;;;1.52;0.50;;;17.40;99.90;;;;;;5026832;28;20076;-70
2021/06/28 02:03:17;;;;;;;0.68;0.50;;;17.40;99.90;;;;;;5026263;28;20078;-70
2021/06/28 02:05:58;;;;;;;1.33;0.40;;;17.50;99.90;;;;;;5022359;28;20089;-71
2021/06/28 02:08:27;;;;;;;0.57;0.30;;;17.50;99.90;;;;;;5025797;28;20093;-71
2021/06/28 02:10:55;;;;;;;0.85;0.60;;;17.50;99.90;;;;;;5023797;28;20120;-71
2021/06/28 02:13:24;;;;;;;2.45;0.40;;;17.50;99.90;;;;;;5024647;28;20522;-70
2021/06/28 02:15:50;;;;;;;1.10;0.75;;;17.40;99.90;;;;;;5025766;28;20086;-70
2021/06/28 02:18:15;;;;;;;0.70;0.32;;;17.50;99.90;;;;;;5026242;28;20109;-71
2021/06/28 02:20:41;;;;;;;1.67;0.45;;;17.40;99.90;;;;;;5027954;28;20561;-70
2021/06/28 02:23:22;;;;;;;2.03;0.60;;;17.50;99.90;;;;;;5025124;28;20473;-70
2021/06/28 02:25:54;;;;;;;0.52;0.30;;;17.40;99.90;;;;;;5024340;28;20081;-70
2021/06/28 02:28:20;;;;;;;2.00;0.57;;;17.40;99.90;;;;;;5026895;28;20155;-70
2021/06/28 02:30:46;;;;;;;1.50;1.25;;;17.40;99.90;;;;;;5025062;28;20082;-71
2021/06/28 02:33:12;;;;;;;2.30;0.60;;;17.30;99.90;;;;;;5026636;28;20119;-70
2021/06/28 02:35:38;;;;;;;2.03;0.70;;;17.30;99.90;;;;;;5025046;28;20094;-70
2021/06/28 02:38:04;;;;;;;0.60;0.57;;;17.30;99.90;;;;;;5026877;28;20093;-70
2021/06/28 02:40:29;;;;;;;1.25;0.60;;;17.30;99.90;;;;;;5028175;28;20078;-70
2021/06/28 02:42:55;;;;;;;2.25;0.40;;;17.40;99.90;;;;;;5026406;28;20100;-72
2021/06/28 02:45:20;;;;;;;1.63;0.57;;;17.40;99.90;;;;;;5024821;28;20092;-71
2021/06/28 02:47:46;;;;;;;3.10;0.50;;;17.50;99.90;;;;;;5023844;28;20094;-71
2021/06/28 02:50:14;;;;;;;1.90;0.43;;;17.40;99.90;;;;;;5025537;28;20084;-73
2021/06/28 02:52:41;;;;;;;1.52;0.50;;;17.40;99.90;;;;;;5026393;28;20092;-71
2021/06/28 02:55:08;;;;;;;3.03;0.43;;;17.30;99.90;;;;;;5026992;28;20086;-71
2021/06/28 02:57:34;;;;;;;2.25;0.52;;;17.40;99.90;;;;;;5027056;28;20106;-71
2021/06/28 03:00:00;;;;;;;1.88;0.57;;;17.50;99.90;;;;;;5026068;28;20449;-71
2021/06/28 03:02:26;;;;;;;1.70;0.75;;;17.50;99.90;;;;;;5024372;28;20625;-71
2021/06/28 03:04:51;;;;;;;2.40;0.77;;;17.50;99.90;;;;;;5023545;28;20081;-71
2021/06/28 03:07:17;;;;;;;1.55;0.47;;;17.50;99.90;;;;;;5023356;28;20110;-71
2021/06/28 03:09:43;;;;;;;1.13;0.38;;;17.40;99.90;;;;;;5025802;28;20169;-71
2021/06/28 03:12:09;;;;;;;1.85;0.57;;;17.40;99.90;;;;;;5026141;28;20516;-70
2021/06/28 03:14:35;;;;;;;1.65;0.57;;;17.30;99.90;;;;;;5022956;28;20159;-70
2021/06/28 03:17:00;;;;;;;1.13;0.68;;;17.30;99.90;;;;;;5024510;28;20485;-70
2021/06/28 03:19:26;;;;;;;0.70;0.60;;;17.30;99.90;;;;;;5027319;28;20078;-69
2021/06/28 03:21:51;;;;;;;0.52;0.52;;;17.30;99.90;;;;;;5024434;28;20077;-69
2021/06/28 03:24:17;;;;;;;2.05;0.57;;;17.30;99.90;;;;;;5025851;28;20108;-70
2021/06/28 03:26:42;;;;;;;2.38;0.52;;;17.30;99.90;;;;;;5025257;28;20078;-70
2021/06/28 03:29:08;;;;;;;2.53;0.50;;;17.30;99.90;;;;;;5025970;28;20132;-70
2021/06/28 03:31:34;;;;;;;1.35;0.77;;;17.20;99.90;;;;;;5026948;28;20086;-71
2021/06/28 03:34:00;;;;;;;1.42;0.65;;;17.20;99.90;;;;;;5025819;28;20093;-70
2021/06/28 03:36:26;;;;;;;0.80;0.60;;;17.10;99.90;;;;;;5025306;28;20124;-70
2021/06/28 03:38:52;;;;;;;2.20;0.70;;;17.00;99.90;;;;;;5028376;28;20086;-70
2021/06/28 03:41:18;;;;;;;1.60;0.45;;;17.00;99.90;;;;;;5024920;28;20149;-70
2021/06/28 03:43:44;;;;;;;1.13;0.55;;;16.90;99.90;;;;;;5020660;28;20209;-69
2021/06/28 03:46:10;;;;;;;0.55;0.50;;;16.90;99.90;;;;;;5028544;28;20681;-70
2021/06/28 03:48:35;;;;;;;1.90;0.40;;;17.10;99.90;;;;;;5028339;28;20101;-70
2021/06/28 03:51:01;;;;;;;1.33;0.45;;;17.10;99.90;;;;;;5029394;28;20078;-70
2021/06/28 03:53:27;;;;;;;1.63;0.50;;;17.20;99.90;;;;;;5028746;28;20078;-70
2021/06/28 03:55:53;;;;;;;1.65;0.47;;;17.10;99.90;;;;;;5027347;28;20557;-70
2021/06/28 03:58:18;;;;;;;1.27;0.47;;;17.20;99.90;;;;;;5030467;28;20102;-70
2021/06/28 04:00:47;;;;;;;2.08;0.75;;;17.10;99.90;;;;;;5028118;28;20807;-70
2021/06/28 04:03:15;;;;;;;2.88;0.60;;;17.10;99.90;;;;;;5028981;28;20076;-70
2021/06/28 04:05:41;;;;;;;0.80;0.60;;;17.20;99.90;;;;;;5027488;28;20108;-69
2021/06/28 04:08:07;;;;;;;0.98;0.40;;;17.30;99.90;;;;;;5028587;28;20567;-69
2021/06/28 04:10:33;;;;;;;5.40;0.77;;;17.30;99.90;;;;;;5029049;28;20131;-70
2021/06/28 04:12:59;;;;;;;0.70;0.60;;;17.30;99.90;;;;;;5028437;28;20093;-70
2021/06/28 04:15:24;;;;;;;1.42;0.50;;;17.40;99.90;;;;;;5009675;28;20144;-70
2021/06/28 04:17:52;;;;;;;0.77;0.50;;;17.40;99.90;;;;;;5029244;28;20446;-70
2021/06/28 04:20:21;;;;;;;4.97;0.70;;;17.30;99.90;;;;;;5029378;28;20121;-69
2021/06/28 04:22:47;;;;;;;3.05;0.52;;;17.40;99.90;;;;;;5030384;28;20092;-70
2021/06/28 04:25:16;;;;;;;1.15;0.50;;;17.40;99.90;;;;;;5025832;28;20077;-70
2021/06/28 04:27:42;;;;;;;1.63;0.70;;;17.40;99.90;;;;;;5028729;28;20561;-70
2021/06/28 04:30:10;;;;;;;1.17;0.40;;;17.50;99.90;;;;;;5030634;28;20070;-69
2021/06/28 04:32:35;;;;;;;1.65;0.50;;;17.60;99.90;;;;;;5028755;28;20078;-70
2021/06/28 04:35:03;;;;;;;3.30;0.60;;;17.60;99.90;;;;;;5029068;28;20077;-68
2021/06/28 04:37:29;;;;;;;2.55;0.80;;;17.70;99.90;;;;;;5025317;28;20866;-70
2021/06/28 04:39:55;;;;;;;1.98;0.50;;;17.70;99.90;;;;;;5027924;28;20090;-69
2021/06/28 04:42:20;;;;;;;1.13;0.35;;;17.70;99.90;;;;;;5029369;28;20080;-70
2021/06/28 04:44:46;;;;;;;1.30;0.73;;;17.70;99.90;;;;;;5028395;28;20077;-70
2021/06/28 04:47:11;;;;;;;1.92;0.98;;;17.80;99.90;;;;;;5026639;28;20143;-70
2021/06/28 04:49:37;;;;;;;2.15;0.88;;;17.90;99.90;;;;;;5026732;28;20902;-69
2021/06/28 04:52:03;;;;;;;0.93;0.60;;;18.00;99.90;;;;;;5026951;28;20157;-70
2021/06/28 04:54:28;;;;;;;2.35;0.75;;;18.10;99.90;;;;;;5026840;28;20114;-70
2021/06/28 04:56:54;;;;;;;1.77;0.60;;;18.10;99.90;;;;;;5026970;28;20106;-69
2021/06/28 04:59:19;;;;;;;1.63;0.60;;;18.20;99.90;;;;;;5028715;28;20078;-70
2021/06/28 05:01:45;;;;;;;0.40;0.40;;;18.20;99.90;;;;;;5011978;28;20281;-71
2021/06/28 05:04:10;;;;;;;4.93;1.00;;;18.40;99.90;;;;;;5027483;28;20101;-75
2021/06/28 05:06:36;;;;;;;1.40;0.45;;;18.50;99.90;;;;;;5015513;28;20084;-69
2021/06/28 05:09:02;;;;;;;2.55;0.68;;;18.60;99.90;;;;;;5022655;28;20456;-70
2021/06/28 05:11:28;;;;;;;1.77;0.63;;;18.70;99.90;;;;;;5018369;28;20465;-69
2021/06/28 05:13:53;;;;;;;0.88;0.60;;;18.80;99.90;;;;;;5020630;28;20066;-70
2021/06/28 05:16:19;;;;;;;1.15;0.77;;;18.80;99.90;;;;;;5026197;28;20089;-71
2021/06/28 05:18:44;;;;;;;3.83;0.80;;;18.70;99.90;;;;;;5027445;28;20105;-70
2021/06/28 05:21:10;;;;;;;2.53;0.70;;;18.80;99.90;;;;;;5027934;28;20085;-69
2021/06/28 05:23:36;;;;;;;0.63;0.63;;;18.80;99.90;;;;;;5028593;28;20077;-71
2021/06/28 05:26:02;;;;;;;1.05;0.77;;;18.90;99.90;;;;;;5026564;28;20074;-71
2021/06/28 05:28:27;;;;;;;1.10;0.90;;;19.00;99.90;;;;;;5028054;28;20100;-70
2021/06/28 05:30:53;;;;;;;0.88;0.60;;;19.00;99.90;;;;;;5027162;28;20504;-71
2021/06/28 05:33:19;;;;;;;0.85;0.60;;;19.10;99.90;;;;;;5027696;28;20512;-70
2021/06/28 05:35:44;;;;;;;0.70;0.70;;;19.20;99.90;;;;;;5024200;28;20149;-69
2021/06/28 05:38:10;;;;;;;2.05;0.93;;;19.30;99.90;;;;;;5009779;28;20097;-71
2021/06/28 05:40:35;;;;;;;2.75;0.98;;;19.40;99.90;;;;;;5027698;28;20066;-71
2021/06/28 05:43:01;;;;;;;1.35;0.80;;;19.50;99.90;;;;;;5034157;28;20086;-71
2021/06/28 05:45:27;;;;;;;2.70;0.77;;;19.50;99.90;;;;;;5018544;28;20686;-70
2021/06/28 05:47:52;;;;;;;1.00;0.70;;;19.60;99.90;;;;;;5009347;28;20140;-71
2021/06/28 05:50:19;;;;;;;1.02;0.80;;;19.70;99.90;;;;;;5006222;28;20110;-69
2021/06/28 05:52:45;;;;;;;0.82;0.80;;;19.70;99.90;;;;;;5019976;28;20081;-71
2021/06/28 05:55:12;;;;;;;0.70;0.50;;;19.70;99.90;;;;;;5026767;28;20165;-70
2021/06/28 05:57:38;;;;;;;2.05;0.82;;;19.90;99.90;;;;;;5021702;28;20100;-70
2021/06/28 06:00:09;;;;;;;0.80;0.60;;;19.90;99.90;;;;;;5026249;28;20074;-71
2021/06/28 06:02:35;;;;;;;1.00;0.70;;;20.00;99.90;;;;;;5025254;28;20137;-70
2021/06/28 06:05:02;;;;;;;2.15;0.88;;;20.10;99.90;;;;;;5024691;28;20153;-70
2021/06/28 06:07:27;;;;;;;2.08;0.70;;;20.20;99.90;;;;;;5022150;28;20086;-69
2021/06/28 06:09:53;;;;;;;1.08;0.88;;;20.20;99.90;;;;;;5021799;28;20078;-70
2021/06/28 06:12:18;;;;;;;0.80;0.73;;;20.30;99.90;;;;;;5026197;28;20729;-70
2021/06/28 06:14:45;;;;;;;0.85;0.80;;;20.40;99.90;;;;;;5026127;28;20073;-70
2021/06/28 06:17:10;;;;;;;1.50;0.98;;;20.50;99.90;;;;;;5025582;28;20189;-70
2021/06/28 06:19:36;;;;;;;1.23;0.85;;;20.50;99.90;;;;;;5027393;28;20165;-71
2021/06/28 06:22:02;;;;;;;1.58;1.10;;;20.50;99.90;;;;;;5009002;28;20066;-71
2021/06/28 06:24:29;;;;;;;2.92;0.90;;;20.60;99.90;;;;;;5024711;28;20211;-71
2021/06/28 06:26:56;;;;;;;1.23;1.10;;;20.70;99.90;;;;;;5024677;28;20125;-71
2021/06/28 06:29:22;;;;;;;1.25;0.90;;;20.70;99.90;;;;;;5025442;28;20078;-70
2021/06/28 06:31:48;;;;;;;1.58;1.02;;;20.90;99.90;;;;;;5009367;28;20434;-70
2021/06/28 06:34:13;;;;;;;2.88;0.90;;;21.00;99.90;;;;;;5024709;28;20085;-70
2021/06/28 06:36:39;;;;;;;25.92;2.05;;;21.10;99.90;;;;;;5023569;28;20100;-70
2021/06/28 06:39:05;;;;;;;1.50;0.80;;;21.20;99.90;;;;;;5025922;28;20085;-71
2021/06/28 06:41:30;;;;;;;2.97;1.10;;;21.30;99.90;;;;;;5027501;28;20089;-70
2021/06/28 06:43:56;;;;;;;1.25;1.00;;;21.30;99.90;;;;;;5025000;28;20097;-70
2021/06/28 06:46:21;;;;;;;1.50;0.90;;;21.40;99.90;;;;;;5021954;28;20152;-70
2021/06/28 06:48:47;;;;;;;1.52;1.17;;;21.50;99.90;;;;;;5022742;28;20090;-70
2021/06/28 06:51:12;;;;;;;1.55;1.10;;;21.50;99.90;;;;;;5025792;28;20085;-71
2021/06/28 06:53:38;;;;;;;1.52;0.90;;;21.60;99.90;;;;;;5025752;28;20156;-70
2021/06/28 06:56:07;;;;;;;1.80;0.82;;;21.70;99.90;;;;;;5024513;28;20093;-71
2021/06/28 06:58:36;;;;;;;1.27;0.93;;;21.70;99.90;;;;;;5026536;28;20105;-72
2021/06/28 07:01:03;;;;;;;1.45;0.95;;;21.80;99.90;;;;;;5026901;28;20093;-71
2021/06/28 07:03:28;;;;;;;3.17;1.10;;;21.90;99.90;;;;;;5026516;28;20092;-70
2021/06/28 07:05:54;;;;;;;2.00;0.80;;;21.90;99.90;;;;;;5015325;28;20074;-71
2021/06/28 07:08:20;;;;;;;2.90;1.08;;;21.90;99.90;;;;;;5025718;28;20124;-71
2021/06/28 07:10:45;;;;;;;1.17;1.05;;;21.90;99.90;;;;;;5022436;28;20155;-71
2021/06/28 07:13:11;;;;;;;1.95;1.30;;;22.00;99.90;;;;;;5027055;28;20078;-71
2021/06/28 07:15:37;;;;;;;1.77;1.00;;;22.20;99.90;;;;;;5021228;28;20469;-71
2021/06/28 07:18:04;;;;;;;2.97;1.05;;;22.20;99.90;;;;;;5003016;28;20094;-70
2021/06/28 07:20:29;;;;;;;1.70;0.90;;;22.10;99.90;;;;;;5029276;28;20070;-71
2021/06/28 07:22:55;;;;;;;2.17;1.10;;;22.30;99.90;;;;;;5011717;28;20097;-69
2021/06/28 07:25:22;;;;;;;2.20;1.00;;;22.40;99.90;;;;;;5025232;28;20078;-71
2021/06/28 07:27:49;;;;;;;0.90;0.80;;;22.50;99.90;;;;;;5022745;28;20169;-71
2021/06/28 07:30:17;;;;;;;1.13;0.90;;;22.60;99.90;;;;;;5025417;28;20078;-71
2021/06/28 07:32:43;;;;;;;1.73;0.80;;;22.60;99.90;;;;;;5029009;28;20584;-70
2021/06/28 07:35:11;;;;;;;0.95;0.82;;;22.60;99.90;;;;;;5030729;28;20082;-71
2021/06/28 07:37:37;;;;;;;0.77;0.70;;;22.80;99.90;;;;;;5026745;28;20104;-70
2021/06/28 07:40:06;;;;;;;1.02;0.75;;;22.80;99.90;;;;;;5028735;28;20082;-70
2021/06/28 07:42:31;;;;;;;1.15;0.80;;;23.00;99.90;;;;;;5007870;28;20172;-70
2021/06/28 07:44:57;;;;;;;1.88;0.80;;;23.10;99.90;;;;;;5027576;28;20146;-70
2021/06/28 07:47:24;;;;;;;1.27;1.00;;;23.10;99.90;;;;;;5010867;28;20136;-72
2021/06/28 07:49:50;;;;;;;1.38;1.00;;;23.20;99.90;;;;;;5025564;28;20074;-73
2021/06/28 07:52:15;;;;;;;0.93;0.90;;;23.30;99.90;;;;;;5017202;28;20092;-71
2021/06/28 07:54:43;;;;;;;1.02;0.80;;;23.40;99.90;;;;;;5008744;28;20078;-71
2021/06/28 07:57:09;;;;;;;1.00;0.88;;;23.50;99.90;;;;;;5029431;28;20124;-71
2021/06/28 07:59:34;;;;;;;2.15;0.88;;;23.60;99.90;;;;;;5028785;28;20110;-71
2021/06/28 08:02:00;;;;;;;1.02;0.93;;;23.60;99.90;;;;;;5008588;28;20070;-70
2021/06/28 08:04:27;;;;;;;1.50;0.98;;;23.70;99.90;;;;;;5028770;28;20516;-69
2021/06/28 08:06:54;;;;;;;1.23;0.80;;;23.90;99.90;;;;;;5027255;28;20561;-70
2021/06/28 08:09:19;;;;;;;1.85;0.90;;;24.00;99.90;;;;;;5028759;28;20158;-69
2021/06/28 08:11:45;;;;;;;1.48;1.20;;;24.00;99.90;;;;;;5028459;28;20164;-71
2021/06/28 08:14:12;;;;;;;1.55;1.00;;;24.00;99.90;;;;;;5027329;28;20101;-69
2021/06/28 08:16:38;;;;;;;0.98;0.88;;;24.00;99.90;;;;;;5026939;28;20081;-69
2021/06/28 08:19:04;;;;;;;1.48;0.90;;;24.00;99.90;;;;;;5026327;28;20074;-70
2021/06/28 08:21:30;;;;;;;2.33;0.85;;;24.10;99.90;;;;;;5008340;28;20083;-70
2021/06/28 08:23:56;;;;;;;1.20;0.90;;;24.00;99.90;;;;;;5009172;28;20132;-69
2021/06/28 08:26:21;;;;;;;2.65;1.10;;;24.30;99.90;;;;;;5025200;28;20119;-70
2021/06/28 08:28:47;;;;;;;2.58;1.15;;;24.40;99.90;;;;;;5029700;28;20457;-70
2021/06/28 08:31:13;;;;;;;1.20;0.98;;;24.00;99.90;;;;;;5027471;28;20070;-70
2021/06/28 08:33:40;;;;;;;2.55;1.13;;;24.10;99.90;;;;;;5007116;28;20105;-70
2021/06/28 08:36:06;;;;;;;1.17;1.08;;;24.20;99.90;;;;;;5020497;28;20089;-70
2021/06/28 08:38:31;;;;;;;2.45;1.08;;;24.60;99.90;;;;;;5028158;28;20098;-70
2021/06/28 08:40:57;;;;;;;1.65;1.00;;;24.50;99.90;;;;;;5027340;28;20185;-70
2021/06/28 08:43:23;;;;;;;3.25;1.10;;;24.60;99.90;;;;;;5028166;28;20550;-69
2021/06/28 08:45:50;;;;;;;2.33;1.25;;;24.80;99.90;;;;;;5026590;28;20157;-70
2021/06/28 08:48:16;;;;;;;1.75;0.90;;;24.90;99.90;;;;;;5025448;28;20573;-69
2021/06/28 08:50:41;;;;;;;1.35;0.70;;;24.80;99.90;;;;;;5027709;28;20093;-69
2021/06/28 08:53:09;;;;;;;1.08;0.95;;;24.90;99.90;;;;;;5028542;28;20074;-70
2021/06/28 08:55:36;;;;;;;1.63;1.00;;;25.20;99.90;;;;;;5023431;28;20078;-69
2021/06/28 08:58:03;;;;;;;1.83;0.85;;;25.10;99.90;;;;;;5025295;28;20596;-70
2021/06/28 09:00:29;;;;;;;0.60;0.60;;;25.10;99.90;;;;;;5025119;28;20082;-70
2021/06/28 09:03:00;;;;;;;0.77;0.70;;;25.00;99.90;;;;;;5028552;28;20066;-69
2021/06/28 09:05:27;;;;;;;1.90;0.82;;;24.90;99.90;;;;;;5026455;28;20140;-70
2021/06/28 09:08:12;;;;;;;1.67;0.90;;;24.80;99.90;;;;;;5025101;28;20143;-69
2021/06/28 09:10:40;;;;;;;1.65;0.60;;;25.00;99.90;;;;;;5027186;28;20081;-70
2021/06/28 09:13:07;;;;;;;1.02;0.90;;;25.00;99.90;;;;;;5025588;28;20128;-72
2021/06/28 09:15:52;;;;;;;1.05;0.80;;;25.00;99.90;;;;;;4967548;28;20555;-71
2021/06/28 09:18:25;;;;;;;2.40;0.80;;;25.40;99.90;;;;;;5020299;28;20113;-69
2021/06/28 09:21:04;;;;;;;1.13;0.80;;;25.50;99.90;;;;;;5025045;28;20445;-69
2021/06/28 09:23:29;;;;;;;2.15;0.80;;;25.40;99.90;;;;;;5023298;28;20476;-71
2021/06/28 09:25:57;;;;;;;1.10;0.90;;;25.20;99.90;;;;;;5025414;28;20128;-71
2021/06/28 09:28:39;;;;;;;1.10;1.00;;;25.10;99.90;;;;;;5024067;28;20113;-72
2021/06/28 09:31:05;;;;;;;1.95;0.60;;;25.10;99.90;;;;;;5027144;28;20082;-70
2021/06/28 09:33:31;;;;;;;1.30;0.88;;;25.60;99.90;;;;;;5023602;28;20092;-74
2021/06/28 09:35:57;;;;;;;1.88;1.00;;;25.60;99.90;;;;;;5026106;28;20558;-71
2021/06/28 09:38:39;;;;;;;1.08;0.90;;;25.40;99.90;;;;;;5024627;28;20102;-70
2021/06/28 09:41:20;;;;;;;1.55;1.00;;;25.60;99.90;;;;;;5027716;28;20431;-70
2021/06/28 09:43:46;;;;;;;1.98;0.70;;;25.60;99.90;;;;;;5020318;28;20090;-70
2021/06/28 09:46:21;;;;;;;0.80;0.60;;;25.60;99.90;;;;;;5024412;28;20136;-71
2021/06/28 09:48:49;;;;;;;1.10;0.70;;;25.60;99.90;;;;;;5022960;28;20094;-70
2021/06/28 09:51:26;;;;;;;1.15;0.80;;;25.80;99.90;;;;;;5023373;28;20108;-70
2021/06/28 09:54:05;;;;;;;0.93;0.82;;;26.00;99.90;;;;;;5022732;28;20081;-72
2021/06/28 09:56:40;;;;;;;1.20;0.80;;;26.20;99.90;;;;;;5017257;28;20096;-71
2021/06/28 09:59:38;;;;;;;3.38;0.90;;;26.10;99.90;;;;;;5003816;28;20089;-71
2021/06/28 10:02:31;;;;;;;1.10;0.80;;;26.10;99.90;;;;;;4999247;28;20086;-71
2021/06/28 10:05:03;;;;;;;1.00;0.88;;;26.20;99.90;;;;;;5024212;28;20086;-71
2021/06/28 10:07:30;;;;;;;1.98;0.82;;;26.20;99.90;;;;;;5025137;28;20090;-71
2021/06/28 10:10:05;;;;;;;0.80;0.80;;;26.10;99.90;;;;;;5027294;28;20081;-71
2021/06/28 10:12:31;;;;;;;1.15;0.73;;;26.00;99.90;;;;;;5025507;28;20077;-73
2021/06/28 10:14:57;;;;;;;0.75;0.70;;;26.10;99.90;;;;;;5025669;28;20090;-71
2021/06/28 10:17:23;;;;;;;0.73;0.73;;;26.20;99.90;;;;;;5020587;28;20593;-71
2021/06/28 10:19:50;;;;;;;0.70;0.60;;;26.40;99.90;;;;;;5015923;28;20074;-71
2021/06/28 10:22:16;;;;;;;0.75;0.70;;;26.40;99.90;;;;;;5024093;28;20077;-71
2021/06/28 10:24:41;;;;;;;0.75;0.70;;;26.60;99.90;;;;;;5022819;28;20078;-71
2021/06/28 10:27:07;;;;;;;2.42;0.80;;;26.70;99.90;;;;;;5021347;28;20474;-74
2021/06/28 10:29:34;;;;;;;1.63;0.73;;;26.70;99.90;;;;;;5024658;28;20082;-71
2021/06/28 10:32:09;;;;;;;1.13;0.73;;;26.70;99.90;;;;;;4999508;28;20073;-71
2021/06/28 10:34:35;;;;;;;4.00;0.70;;;26.70;99.90;;;;;;5026115;28;20170;-71
2021/06/28 10:37:03;;;;;;;2.60;0.82;;;26.80;99.90;;;;;;5024970;28;20081;-71
2021/06/28 10:39:31;;;;;;;2.05;0.70;;;26.70;99.90;;;;;;5022540;28;20481;-71
2021/06/28 10:41:58;;;;;;;1.20;0.70;;;26.60;99.90;;;;;;5026780;28;20409;-71
2021/06/28 10:44:25;;;;;;;2.80;0.88;;;26.80;99.90;;;;;;4982251;28;20090;-71
2021/06/28 10:46:58;;;;;;;2.15;0.95;;;26.90;99.90;;;;;;5015232;28;20073;-71
2021/06/28 10:49:52;;;;;;;1.67;0.60;;;26.80;99.90;;;;;;4999719;28;20085;-71
2021/06/28 10:52:37;;;;;;;0.75;0.60;;;26.70;99.90;;;;;;5024733;28;20119;-71
2021/06/28 10:55:18;;;;;;;2.67;1.02;;;26.70;99.90;;;;;;5002250;28;20097;-71
2021/06/28 10:57:44;;;;;;;1.02;0.80;;;26.60;99.90;;;;;;5029672;28;20615;-70
2021/06/28 11:00:11;;;;;;;0.93;0.90;;;26.70;99.90;;;;;;5030121;28;20491;-72
2021/06/28 11:02:38;;;;;;;1.02;0.52;;;26.70;99.90;;;;;;5031524;28;20081;-71
2021/06/28 11:05:06;;;;;;;0.40;0.40;;;26.80;99.90;;;;;;5029658;28;20076;-72
2021/06/28 11:07:45;;;;;;;1.20;0.57;;;26.80;99.90;;;;;;5028380;28;20104;-71
2021/06/28 11:10:37;;;;;;;1.85;0.80;;;26.90;99.10;;;;;;5032266;28;20446;-71
2021/06/28 11:13:28;;;;;;;1.50;0.40;;;27.00;99.40;;;;;;5024432;28;20185;-71
2021/06/28 11:15:53;;;;;;;1.30;0.57;;;27.00;99.90;;;;;;5030863;28;20110;-72
2021/06/28 11:18:30;;;;;;;0.73;0.70;;;27.10;99.90;;;;;;5029328;28;20187;-71
2021/06/28 11:20:56;;;;;;;0.82;0.63;;;27.20;99.90;;;;;;5005336;28;20085;-71
2021/06/28 11:23:22;;;;;;;0.85;0.60;;;27.20;99.20;;;;;;5031988;28;20074;-72
2021/06/28 11:25:56;;;;;;;0.75;0.60;;;27.20;99.40;;;;;;5031015;28;20074;-72
2021/06/28 11:28:22;;;;;;;;;;;27.30;98.80;;;;;;5027812;28;20561;-71
2021/06/28 11:30:48;;;;;;;1.05;0.75;;;27.30;99.90;;;;;;5007356;28;19974;-71
2021/06/28 11:33:14;;;;;;;0.98;0.60;;;27.30;99.90;;;;;;5028382;28;20078;-75
2021/06/28 11:35:44;;;;;;;2.05;0.70;;;27.30;99.40;;;;;;5030435;28;20264;-72
2021/06/28 11:38:24;;;;;;;2.83;0.90;;;27.40;99.90;;;;;;5028478;28;20093;-72
2021/06/28 11:40:54;;;;;;;1.75;0.70;;;27.20;99.90;;;;;;5028016;28;20082;-72
2021/06/28 11:43:40;;;;;;;1.30;0.73;;;27.40;99.90;;;;;;5028246;28;20132;-72
2021/06/28 11:46:09;;;;;;;1.70;0.70;;;27.50;99.00;;;;;;5030067;28;20078;-71
2021/06/28 11:48:40;;;;;;;1.00;0.70;;;27.40;99.60;;;;;;5031493;28;20201;-71
2021/06/28 11:51:18;;;;;;;1.67;0.68;;;27.50;99.90;;;;;;5029863;28;20438;-72
2021/06/28 11:53:55;;;;;;;1.98;0.65;;;27.40;99.90;;;;;;5029712;28;20074;-71
2021/06/28 11:56:31;;;;;;;2.88;0.70;;;27.40;99.90;;;;;;5027393;28;20101;-71
2021/06/28 11:59:01;;;;;;;2.00;0.52;;;27.50;99.90;;;;;;5027091;28;20467;-71
2021/06/28 12:01:39;;;;;;;1.67;1.30;;;27.50;99.90;;;;;;5030837;28;20243;-72
2021/06/28 12:04:26;;;;;;;2.30;0.95;;;27.50;99.90;;;;;;5032104;28;20437;-71
2021/06/28 12:06:53;;;;;;;1.05;0.80;;;27.50;99.90;;;;;;5028028;28;20098;-72
2021/06/28 12:09:24;;;;;;;1.92;1.10;;;27.50;99.90;;;;;;5031717;28;20473;-72
2021/06/28 12:12:01;;;;;;;2.08;0.70;;;27.50;99.90;;;;;;5029169;28;20247;-71
2021/06/28 12:14:39;;;;;;;1.13;0.70;;;27.60;99.90;;;;;;5028921;28;20146;-72
2021/06/28 12:17:15;;;;;;;0.82;0.70;;;27.50;99.90;;;;;;5028742;28;20094;-71
2021/06/28 12:19:43;;;;;;;1.98;0.80;;;27.60;99.90;;;;;;5030552;28;20073;-71
2021/06/28 12:22:14;;;;;;;1.17;0.60;;;27.60;99.90;;;;;;5017867;28;20083;-71
2021/06/28 12:24:44;;;;;;;1.52;0.88;;;27.50;99.90;;;;;;5020270;28;20078;-73
2021/06/28 12:27:13;;;;;;;1.92;1.05;;;27.60;99.90;;;;;;5011133;28;20443;-71
2021/06/28 12:29:46;;;;;;;2.25;1.23;;;27.50;99.90;;;;;;5024421;28;20554;-73
2021/06/28 12:32:23;;;;;;;0.88;0.75;;;27.40;99.90;;;;;;5005628;28;20185;-73
2021/06/28 12:34:51;;;;;;;1.70;0.60;;;27.40;99.90;;;;;;5029887;28;20146;-74
2021/06/28 12:37:27;;;;;;;1.85;1.02;;;27.50;99.90;;;;;;5028782;28;20185;-73
2021/06/28 12:40:08;;;;;;;3.47;0.80;;;27.50;99.90;;;;;;5026330;28;20081;-73
2021/06/28 12:42:38;;;;;;;2.50;0.93;;;27.60;99.90;;;;;;5029666;28;20088;-73
2021/06/28 12:45:04;;;;;;;1.52;0.73;;;27.60;99.90;;;;;;5027675;28;20509;-72
2021/06/28 12:47:30;;;;;;;2.60;0.70;;;27.50;99.90;;;;;;5028972;28;20090;-73
2021/06/28 12:49:55;;;;;;;2.30;0.90;;;27.60;99.90;;;;;;5028905;28;20078;-71
2021/06/28 12:52:36;;;;;;;2.38;1.08;;;27.60;99.90;;;;;;5029339;28;20220;-73